sensor_id;sensor_type;location;lat;lon;timestamp;P1;durP1;ratioP1;P2;durP2;ratioP2
51921;SDS011;37948;53.260;6.394;2023-02-28T00:00:46;6.72;;;1.63;;
51921;SDS011;37948;53.260;6.394;2023-02-28T00:03:11;5.90;;;1.73;;
51921;SDS011;37948;53.260;6.394;2023-02-28T00:05:37;7.60;;;1.88;;
51921;SDS011;37948;53.260;6.394;2023-02-28T00:08:03;7.03;;;2.00;;
51921;SDS011;37948;53.260;6.394;2023-02-28T00:10:30;3.72;;;1.73;;
51921;SDS011;37948;53.260;6.394;2023-02-28T00:13:01;3.80;;;1.73;;
51921;SDS011;37948;53.260;6.394;2023-02-28T00:15:29;5.03;;;1.48;;
51921;SDS011;37948;53.260;6.394;2023-02-28T00:17:55;10.10;;;2.03;;
51921;SDS011;37948;53.260;6.394;2023-02-28T00:20:20;5.72;;;1.50;;
51921;SDS011;37948;53.260;6.394;2023-02-28T00:22:48;5.55;;;1.85;;
51921;SDS011;37948;53.260;6.394;2023-02-28T00:25:16;5.93;;;2.20;;
51921;SDS011;37948;53.260;6.394;2023-02-28T00:27:43;5.45;;;1.58;;
51921;SDS011;37948;53.260;6.394;2023-02-28T00:30:11;5.85;;;1.52;;
51921;SDS011;37948;53.260;6.394;2023-02-28T00:32:39;6.63;;;1.50;;
51921;SDS011;37948;53.260;6.394;2023-02-28T00:35:05;7.55;;;1.60;;
51921;SDS011;37948;53.260;6.394;2023-02-28T00:37:35;10.55;;;1.55;;
51921;SDS011;37948;53.260;6.394;2023-02-28T00:40:00;7.60;;;1.40;;
51921;SDS011;37948;53.260;6.394;2023-02-28T00:42:29;3.58;;;1.70;;
51921;SDS011;37948;53.260;6.394;2023-02-28T00:44:55;9.50;;;2.00;;
51921;SDS011;37948;53.260;6.394;2023-02-28T00:47:20;12.15;;;2.50;;
51921;SDS011;37948;53.260;6.394;2023-02-28T00:49:46;6.05;;;1.50;;
51921;SDS011;37948;53.260;6.394;2023-02-28T00:52:12;6.35;;;1.65;;
51921;SDS011;37948;53.260;6.394;2023-02-28T00:54:37;4.72;;;1.48;;
51921;SDS011;37948;53.260;6.394;2023-02-28T00:57:03;3.95;;;1.70;;
51921;SDS011;37948;53.260;6.394;2023-02-28T00:59:28;7.13;;;1.50;;
51921;SDS011;37948;53.260;6.394;2023-02-28T01:01:54;3.13;;;1.50;;
51921;SDS011;37948;53.260;6.394;2023-02-28T01:04:20;4.63;;;1.63;;
51921;SDS011;37948;53.260;6.394;2023-02-28T01:06:45;7.45;;;1.50;;
51921;SDS011;37948;53.260;6.394;2023-02-28T01:09:11;7.65;;;1.20;;
51921;SDS011;37948;53.260;6.394;2023-02-28T01:11:37;6.32;;;1.48;;
51921;SDS011;37948;53.260;6.394;2023-02-28T01:14:04;3.92;;;1.23;;
51921;SDS011;37948;53.260;6.394;2023-02-28T01:16:30;5.95;;;1.70;;
51921;SDS011;37948;53.260;6.394;2023-02-28T01:18:56;10.75;;;1.35;;
51921;SDS011;37948;53.260;6.394;2023-02-28T01:21:22;3.13;;;1.30;;
51921;SDS011;37948;53.260;6.394;2023-02-28T01:23:48;4.55;;;1.20;;
51921;SDS011;37948;53.260;6.394;2023-02-28T01:26:19;1.92;;;1.30;;
51921;SDS011;37948;53.260;6.394;2023-02-28T01:28:46;5.63;;;1.70;;
51921;SDS011;37948;53.260;6.394;2023-02-28T01:31:13;3.42;;;1.42;;
51921;SDS011;37948;53.260;6.394;2023-02-28T01:33:39;1.73;;;1.25;;
51921;SDS011;37948;53.260;6.394;2023-02-28T01:36:06;3.50;;;1.40;;
51921;SDS011;37948;53.260;6.394;2023-02-28T01:38:34;3.13;;;1.20;;
51921;SDS011;37948;53.260;6.394;2023-02-28T01:41:00;4.97;;;1.50;;
51921;SDS011;37948;53.260;6.394;2023-02-28T01:43:27;5.25;;;1.58;;
51921;SDS011;37948;53.260;6.394;2023-02-28T01:45:54;6.53;;;1.52;;
51921;SDS011;37948;53.260;6.394;2023-02-28T01:48:29;9.10;;;1.73;;
51921;SDS011;37948;53.260;6.394;2023-02-28T01:50:59;6.57;;;1.35;;
51921;SDS011;37948;53.260;6.394;2023-02-28T01:53:32;9.73;;;3.67;;
51921;SDS011;37948;53.260;6.394;2023-02-28T01:56:04;3.65;;;1.55;;
51921;SDS011;37948;53.260;6.394;2023-02-28T01:58:31;5.72;;;1.90;;
51921;SDS011;37948;53.260;6.394;2023-02-28T02:00:57;5.97;;;1.70;;
51921;SDS011;37948;53.260;6.394;2023-02-28T02:03:23;4.13;;;1.80;;
51921;SDS011;37948;53.260;6.394;2023-02-28T02:05:49;7.82;;;1.77;;
51921;SDS011;37948;53.260;6.394;2023-02-28T02:08:17;6.25;;;1.77;;
51921;SDS011;37948;53.260;6.394;2023-02-28T02:10:56;5.25;;;1.65;;
51921;SDS011;37948;53.260;6.394;2023-02-28T02:18:47;6.75;;;2.13;;
51921;SDS011;37948;53.260;6.394;2023-02-28T02:32:36;5.75;;;1.75;;
51921;SDS011;37948;53.260;6.394;2023-02-28T02:37:46;1.85;;;1.35;;
51921;SDS011;37948;53.260;6.394;2023-02-28T02:42:51;9.77;;;1.80;;
51921;SDS011;37948;53.260;6.394;2023-02-28T02:48:16;4.45;;;1.58;;
51921;SDS011;37948;53.260;6.394;2023-02-28T02:50:45;6.47;;;1.73;;
51921;SDS011;37948;53.260;6.394;2023-02-28T02:53:15;7.22;;;1.65;;
51921;SDS011;37948;53.260;6.394;2023-02-28T02:55:46;4.97;;;1.40;;
51921;SDS011;37948;53.260;6.394;2023-02-28T02:58:18;5.60;;;2.13;;
51921;SDS011;37948;53.260;6.394;2023-02-28T03:00:46;4.78;;;1.27;;
51921;SDS011;37948;53.260;6.394;2023-02-28T03:03:15;2.70;;;1.48;;
51921;SDS011;37948;53.260;6.394;2023-02-28T03:05:47;4.05;;;1.50;;
51921;SDS011;37948;53.260;6.394;2023-02-28T03:08:14;10.00;;;1.63;;
51921;SDS011;37948;53.260;6.394;2023-02-28T03:10:41;6.40;;;1.60;;
51921;SDS011;37948;53.260;6.394;2023-02-28T03:13:54;4.80;;;1.65;;
51921;SDS011;37948;53.260;6.394;2023-02-28T03:21:39;3.83;;;1.30;;
51921;SDS011;37948;53.260;6.394;2023-02-28T03:24:08;3.80;;;1.20;;
51921;SDS011;37948;53.260;6.394;2023-02-28T03:26:42;3.10;;;1.20;;
51921;SDS011;37948;53.260;6.394;2023-02-28T03:29:25;5.05;;;1.33;;
51921;SDS011;37948;53.260;6.394;2023-02-28T03:35:09;5.30;;;1.17;;
51921;SDS011;37948;53.260;6.394;2023-02-28T03:37:32;4.30;;;1.48;;
51921;SDS011;37948;53.260;6.394;2023-02-28T03:40:05;4.30;;;1.40;;
51921;SDS011;37948;53.260;6.394;2023-02-28T03:42:43;3.17;;;1.27;;
51921;SDS011;37948;53.260;6.394;2023-02-28T03:45:18;8.80;;;1.45;;
51921;SDS011;37948;53.260;6.394;2023-02-28T03:47:52;3.22;;;1.10;;
51921;SDS011;37948;53.260;6.394;2023-02-28T03:50:24;1.92;;;1.02;;
51921;SDS011;37948;53.260;6.394;2023-02-28T03:52:58;6.05;;;1.10;;
51921;SDS011;37948;53.260;6.394;2023-02-28T03:58:49;3.80;;;0.98;;
51921;SDS011;37948;53.260;6.394;2023-02-28T04:04:03;3.92;;;1.25;;
51921;SDS011;37948;53.260;6.394;2023-02-28T04:06:34;3.45;;;1.63;;
51921;SDS011;37948;53.260;6.394;2023-02-28T04:09:00;3.97;;;1.10;;
51921;SDS011;37948;53.260;6.394;2023-02-28T04:13:54;2.65;;;0.93;;
51921;SDS011;37948;53.260;6.394;2023-02-28T04:16:20;6.63;;;1.55;;
51921;SDS011;37948;53.260;6.394;2023-02-28T04:18:46;6.72;;;1.83;;
51921;SDS011;37948;53.260;6.394;2023-02-28T04:21:12;2.95;;;1.73;;
51921;SDS011;37948;53.260;6.394;2023-02-28T04:23:38;3.78;;;1.60;;
51921;SDS011;37948;53.260;6.394;2023-02-28T04:26:04;3.17;;;2.00;;
51921;SDS011;37948;53.260;6.394;2023-02-28T04:28:31;2.78;;;1.90;;
51921;SDS011;37948;53.260;6.394;2023-02-28T04:30:57;5.85;;;2.35;;
51921;SDS011;37948;53.260;6.394;2023-02-28T04:33:28;5.78;;;2.38;;
51921;SDS011;37948;53.260;6.394;2023-02-28T04:35:58;2.67;;;2.30;;
51921;SDS011;37948;53.260;6.394;2023-02-28T04:38:31;2.65;;;2.20;;
51921;SDS011;37948;53.260;6.394;2023-02-28T04:40:58;8.18;;;3.15;;
51921;SDS011;37948;53.260;6.394;2023-02-28T04:43:25;3.55;;;3.25;;
51921;SDS011;37948;53.260;6.394;2023-02-28T04:45:51;8.85;;;4.50;;
51921;SDS011;37948;53.260;6.394;2023-02-28T04:48:17;5.32;;;4.82;;
51921;SDS011;37948;53.260;6.394;2023-02-28T04:50:42;8.32;;;5.75;;
51921;SDS011;37948;53.260;6.394;2023-02-28T04:53:08;8.95;;;6.03;;
51921;SDS011;37948;53.260;6.394;2023-02-28T04:55:34;10.77;;;6.78;;
51921;SDS011;37948;53.260;6.394;2023-02-28T04:57:59;6.47;;;5.88;;
51921;SDS011;37948;53.260;6.394;2023-02-28T05:00:25;12.02;;;6.70;;
51921;SDS011;37948;53.260;6.394;2023-02-28T05:02:51;8.57;;;6.20;;
51921;SDS011;37948;53.260;6.394;2023-02-28T05:05:16;7.75;;;6.32;;
51921;SDS011;37948;53.260;6.394;2023-02-28T05:07:43;7.90;;;6.03;;
51921;SDS011;37948;53.260;6.394;2023-02-28T05:10:10;7.50;;;6.38;;
51921;SDS011;37948;53.260;6.394;2023-02-28T05:12:36;8.50;;;6.80;;
51921;SDS011;37948;53.260;6.394;2023-02-28T05:15:01;7.82;;;5.70;;
51921;SDS011;37948;53.260;6.394;2023-02-28T05:17:29;8.18;;;6.13;;
51921;SDS011;37948;53.260;6.394;2023-02-28T05:19:55;7.43;;;6.25;;
51921;SDS011;37948;53.260;6.394;2023-02-28T05:22:21;6.35;;;5.40;;
51921;SDS011;37948;53.260;6.394;2023-02-28T05:24:47;6.88;;;5.95;;
51921;SDS011;37948;53.260;6.394;2023-02-28T05:27:13;6.68;;;5.38;;
51921;SDS011;37948;53.260;6.394;2023-02-28T05:29:38;5.65;;;4.90;;
51921;SDS011;37948;53.260;6.394;2023-02-28T05:32:10;5.10;;;4.60;;
51921;SDS011;37948;53.260;6.394;2023-02-28T05:34:37;5.28;;;4.07;;
51921;SDS011;37948;53.260;6.394;2023-02-28T05:37:04;4.60;;;4.05;;
51921;SDS011;37948;53.260;6.394;2023-02-28T05:39:30;3.72;;;3.50;;
51921;SDS011;37948;53.260;6.394;2023-02-28T05:41:56;3.95;;;3.63;;
51921;SDS011;37948;53.260;6.394;2023-02-28T05:44:22;4.75;;;3.70;;
51921;SDS011;37948;53.260;6.394;2023-02-28T05:46:47;4.00;;;3.60;;
51921;SDS011;37948;53.260;6.394;2023-02-28T05:49:13;4.40;;;4.00;;
51921;SDS011;37948;53.260;6.394;2023-02-28T05:51:38;4.60;;;4.13;;
51921;SDS011;37948;53.260;6.394;2023-02-28T05:54:05;5.88;;;4.05;;
51921;SDS011;37948;53.260;6.394;2023-02-28T05:56:31;5.07;;;4.50;;
51921;SDS011;37948;53.260;6.394;2023-02-28T05:58:59;7.63;;;5.20;;
51921;SDS011;37948;53.260;6.394;2023-02-28T06:01:38;7.13;;;5.68;;
51921;SDS011;37948;53.260;6.394;2023-02-28T06:04:06;7.05;;;5.82;;
51921;SDS011;37948;53.260;6.394;2023-02-28T06:06:33;10.15;;;6.05;;
51921;SDS011;37948;53.260;6.394;2023-02-28T06:08:59;9.88;;;5.38;;
51921;SDS011;37948;53.260;6.394;2023-02-28T06:11:25;7.07;;;5.72;;
51921;SDS011;37948;53.260;6.394;2023-02-28T06:13:56;8.23;;;5.63;;
51921;SDS011;37948;53.260;6.394;2023-02-28T06:16:25;6.93;;;6.03;;
51921;SDS011;37948;53.260;6.394;2023-02-28T06:18:51;7.45;;;5.80;;
51921;SDS011;37948;53.260;6.394;2023-02-28T06:21:17;7.72;;;5.57;;
51921;SDS011;37948;53.260;6.394;2023-02-28T06:23:43;7.38;;;6.07;;
51921;SDS011;37948;53.260;6.394;2023-02-28T06:26:10;7.55;;;5.93;;
51921;SDS011;37948;53.260;6.394;2023-02-28T06:28:36;10.05;;;6.50;;
51921;SDS011;37948;53.260;6.394;2023-02-28T06:31:11;8.40;;;6.20;;
51921;SDS011;37948;53.260;6.394;2023-02-28T06:33:39;7.28;;;5.55;;
51921;SDS011;37948;53.260;6.394;2023-02-28T06:36:06;8.65;;;6.05;;
51921;SDS011;37948;53.260;6.394;2023-02-28T06:38:32;6.75;;;6.07;;
51921;SDS011;37948;53.260;6.394;2023-02-28T06:40:59;7.32;;;6.13;;
51921;SDS011;37948;53.260;6.394;2023-02-28T06:43:27;7.03;;;6.13;;
51921;SDS011;37948;53.260;6.394;2023-02-28T06:45:55;6.20;;;5.60;;
51921;SDS011;37948;53.260;6.394;2023-02-28T06:48:21;6.05;;;5.45;;
51921;SDS011;37948;53.260;6.394;2023-02-28T06:50:47;8.27;;;5.97;;
51921;SDS011;37948;53.260;6.394;2023-02-28T06:53:13;8.98;;;6.55;;
51921;SDS011;37948;53.260;6.394;2023-02-28T06:55:39;6.43;;;5.78;;
51921;SDS011;37948;53.260;6.394;2023-02-28T06:58:04;7.80;;;6.32;;
51921;SDS011;37948;53.260;6.394;2023-02-28T07:00:42;7.70;;;5.70;;
51921;SDS011;37948;53.260;6.394;2023-02-28T07:03:09;7.85;;;6.35;;
51921;SDS011;37948;53.260;6.394;2023-02-28T07:05:35;7.38;;;6.30;;
51921;SDS011;37948;53.260;6.394;2023-02-28T07:08:02;7.43;;;6.32;;
51921;SDS011;37948;53.260;6.394;2023-02-28T07:10:29;8.00;;;6.97;;
51921;SDS011;37948;53.260;6.394;2023-02-28T07:12:55;9.10;;;7.95;;
51921;SDS011;37948;53.260;6.394;2023-02-28T07:15:21;10.07;;;7.68;;
51921;SDS011;37948;53.260;6.394;2023-02-28T07:17:46;10.23;;;7.90;;
51921;SDS011;37948;53.260;6.394;2023-02-28T07:20:12;9.18;;;7.60;;
51921;SDS011;37948;53.260;6.394;2023-02-28T07:22:38;11.52;;;7.85;;
51921;SDS011;37948;53.260;6.394;2023-02-28T07:25:04;10.13;;;7.70;;
51921;SDS011;37948;53.260;6.394;2023-02-28T07:27:30;11.27;;;8.93;;
51921;SDS011;37948;53.260;6.394;2023-02-28T07:29:56;10.73;;;7.70;;
51921;SDS011;37948;53.260;6.394;2023-02-28T07:32:21;10.27;;;7.85;;
51921;SDS011;37948;53.260;6.394;2023-02-28T07:34:47;10.98;;;7.82;;
51921;SDS011;37948;53.260;6.394;2023-02-28T07:37:13;12.70;;;8.25;;
51921;SDS011;37948;53.260;6.394;2023-02-28T07:39:39;10.80;;;7.93;;
51921;SDS011;37948;53.260;6.394;2023-02-28T07:42:08;10.00;;;7.68;;
51921;SDS011;37948;53.260;6.394;2023-02-28T07:44:36;11.65;;;8.45;;
51921;SDS011;37948;53.260;6.394;2023-02-28T07:47:06;14.18;;;9.13;;
51921;SDS011;37948;53.260;6.394;2023-02-28T07:49:33;10.02;;;8.05;;
51921;SDS011;37948;53.260;6.394;2023-02-28T07:51:59;14.32;;;9.10;;
51921;SDS011;37948;53.260;6.394;2023-02-28T07:54:25;11.32;;;9.02;;
51921;SDS011;37948;53.260;6.394;2023-02-28T07:56:50;11.13;;;9.73;;
51921;SDS011;37948;53.260;6.394;2023-02-28T07:59:16;11.00;;;8.38;;
51921;SDS011;37948;53.260;6.394;2023-02-28T08:01:41;15.02;;;9.70;;
51921;SDS011;37948;53.260;6.394;2023-02-28T08:04:09;10.85;;;8.55;;
51921;SDS011;37948;53.260;6.394;2023-02-28T08:06:35;13.13;;;9.90;;
51921;SDS011;37948;53.260;6.394;2023-02-28T08:09:00;13.10;;;9.60;;
51921;SDS011;37948;53.260;6.394;2023-02-28T08:11:26;12.15;;;8.90;;
51921;SDS011;37948;53.260;6.394;2023-02-28T08:13:52;12.90;;;8.65;;
51921;SDS011;37948;53.260;6.394;2023-02-28T08:16:17;13.80;;;9.50;;
51921;SDS011;37948;53.260;6.394;2023-02-28T08:18:47;12.00;;;8.73;;
51921;SDS011;37948;53.260;6.394;2023-02-28T08:21:13;12.02;;;8.77;;
51921;SDS011;37948;53.260;6.394;2023-02-28T08:23:39;11.52;;;9.20;;
51921;SDS011;37948;53.260;6.394;2023-02-28T08:26:05;10.93;;;8.48;;
51921;SDS011;37948;53.260;6.394;2023-02-28T08:28:31;12.18;;;9.75;;
51921;SDS011;37948;53.260;6.394;2023-02-28T08:30:57;13.13;;;8.65;;
51921;SDS011;37948;53.260;6.394;2023-02-28T08:33:23;15.02;;;10.13;;
51921;SDS011;37948;53.260;6.394;2023-02-28T08:35:53;11.05;;;8.50;;
51921;SDS011;37948;53.260;6.394;2023-02-28T08:38:19;14.65;;;9.20;;
51921;SDS011;37948;53.260;6.394;2023-02-28T08:40:45;11.35;;;9.00;;
51921;SDS011;37948;53.260;6.394;2023-02-28T08:43:11;11.18;;;8.63;;
51921;SDS011;37948;53.260;6.394;2023-02-28T08:45:36;14.70;;;9.90;;
51921;SDS011;37948;53.260;6.394;2023-02-28T08:48:02;12.48;;;9.38;;
51921;SDS011;37948;53.260;6.394;2023-02-28T08:50:28;14.00;;;10.07;;
51921;SDS011;37948;53.260;6.394;2023-02-28T08:52:54;14.73;;;9.45;;
51921;SDS011;37948;53.260;6.394;2023-02-28T08:55:19;13.55;;;9.77;;
51921;SDS011;37948;53.260;6.394;2023-02-28T08:57:45;12.07;;;9.48;;
51921;SDS011;37948;53.260;6.394;2023-02-28T09:00:10;13.73;;;9.13;;
51921;SDS011;37948;53.260;6.394;2023-02-28T09:02:38;12.88;;;9.35;;
51921;SDS011;37948;53.260;6.394;2023-02-28T09:05:04;14.75;;;9.93;;
51921;SDS011;37948;53.260;6.394;2023-02-28T09:07:30;12.52;;;8.68;;
51921;SDS011;37948;53.260;6.394;2023-02-28T09:09:56;13.40;;;8.88;;
51921;SDS011;37948;53.260;6.394;2023-02-28T09:12:26;13.93;;;9.10;;
51921;SDS011;37948;53.260;6.394;2023-02-28T09:14:56;14.13;;;9.13;;
51921;SDS011;37948;53.260;6.394;2023-02-28T09:17:22;13.70;;;7.95;;
51921;SDS011;37948;53.260;6.394;2023-02-28T09:19:48;13.45;;;8.98;;
51921;SDS011;37948;53.260;6.394;2023-02-28T09:22:14;11.20;;;7.88;;
51921;SDS011;37948;53.260;6.394;2023-02-28T09:24:40;10.65;;;8.40;;
51921;SDS011;37948;53.260;6.394;2023-02-28T09:27:06;10.63;;;8.00;;
51921;SDS011;37948;53.260;6.394;2023-02-28T09:29:33;9.35;;;7.72;;
51921;SDS011;37948;53.260;6.394;2023-02-28T09:31:59;11.60;;;8.60;;
51921;SDS011;37948;53.260;6.394;2023-02-28T09:34:26;13.95;;;9.57;;
51921;SDS011;37948;53.260;6.394;2023-02-28T09:36:53;10.73;;;7.82;;
51921;SDS011;37948;53.260;6.394;2023-02-28T09:39:23;11.20;;;8.18;;
51921;SDS011;37948;53.260;6.394;2023-02-28T09:41:52;9.32;;;7.10;;
51921;SDS011;37948;53.260;6.394;2023-02-28T09:44:53;8.10;;;7.30;;
51921;SDS011;37948;53.260;6.394;2023-02-28T09:49:55;9.45;;;7.03;;
51921;SDS011;37948;53.260;6.394;2023-02-28T09:52:28;9.02;;;7.18;;
51921;SDS011;37948;53.260;6.394;2023-02-28T09:54:59;10.57;;;7.72;;
51921;SDS011;37948;53.260;6.394;2023-02-28T09:57:47;11.68;;;8.63;;
51921;SDS011;37948;53.260;6.394;2023-02-28T10:03:04;14.35;;;7.30;;
51921;SDS011;37948;53.260;6.394;2023-02-28T10:05:41;11.13;;;7.25;;
51921;SDS011;37948;53.260;6.394;2023-02-28T10:08:23;13.35;;;7.57;;
51921;SDS011;37948;53.260;6.394;2023-02-28T10:10:51;11.95;;;8.07;;
51921;SDS011;37948;53.260;6.394;2023-02-28T10:16:04;8.52;;;6.75;;
51921;SDS011;37948;53.260;6.394;2023-02-28T10:18:37;9.48;;;6.80;;
51921;SDS011;37948;53.260;6.394;2023-02-28T10:21:10;9.57;;;7.22;;
51921;SDS011;37948;53.260;6.394;2023-02-28T10:23:48;9.38;;;6.97;;
51921;SDS011;37948;53.260;6.394;2023-02-28T10:26:17;9.98;;;6.78;;
51921;SDS011;37948;53.260;6.394;2023-02-28T10:28:43;8.82;;;6.70;;
51921;SDS011;37948;53.260;6.394;2023-02-28T10:31:18;11.27;;;6.75;;
51921;SDS011;37948;53.260;6.394;2023-02-28T10:33:44;8.05;;;6.30;;
51921;SDS011;37948;53.260;6.394;2023-02-28T10:36:14;11.82;;;7.32;;
51921;SDS011;37948;53.260;6.394;2023-02-28T10:38:43;11.55;;;6.50;;
51921;SDS011;37948;53.260;6.394;2023-02-28T10:41:10;10.65;;;7.05;;
51921;SDS011;37948;53.260;6.394;2023-02-28T10:43:39;8.82;;;6.40;;
51921;SDS011;37948;53.260;6.394;2023-02-28T10:48:38;10.23;;;7.00;;
51921;SDS011;37948;53.260;6.394;2023-02-28T10:51:05;10.63;;;7.13;;
51921;SDS011;37948;53.260;6.394;2023-02-28T10:53:34;8.82;;;6.57;;
51921;SDS011;37948;53.260;6.394;2023-02-28T11:06:47;15.73;;;5.97;;
51921;SDS011;37948;53.260;6.394;2023-02-28T11:09:24;8.88;;;6.50;;
51921;SDS011;37948;53.260;6.394;2023-02-28T11:11:57;15.68;;;6.25;;
51921;SDS011;37948;53.260;6.394;2023-02-28T11:14:25;6.45;;;4.68;;
51921;SDS011;37948;53.260;6.394;2023-02-28T11:16:57;9.10;;;5.55;;
51921;SDS011;37948;53.260;6.394;2023-02-28T11:19:44;6.35;;;4.00;;
51921;SDS011;37948;53.260;6.394;2023-02-28T11:22:16;8.80;;;4.65;;
51921;SDS011;37948;53.260;6.394;2023-02-28T11:24:52;11.55;;;4.35;;
51921;SDS011;37948;53.260;6.394;2023-02-28T11:27:26;4.70;;;4.20;;
51921;SDS011;37948;53.260;6.394;2023-02-28T11:29:55;7.57;;;4.43;;
51921;SDS011;37948;53.260;6.394;2023-02-28T11:32:21;5.28;;;4.75;;
51921;SDS011;37948;53.260;6.394;2023-02-28T11:37:34;8.93;;;4.18;;
51921;SDS011;37948;53.260;6.394;2023-02-28T11:40:01;6.88;;;4.15;;
51921;SDS011;37948;53.260;6.394;2023-02-28T11:45:57;5.65;;;3.80;;
51921;SDS011;37948;53.260;6.394;2023-02-28T11:56:37;7.35;;;3.60;;
51921;SDS011;37948;53.260;6.394;2023-02-28T12:02:03;6.03;;;3.40;;
51921;SDS011;37948;53.260;6.394;2023-02-28T12:04:47;4.47;;;3.15;;
51921;SDS011;37948;53.260;6.394;2023-02-28T12:15:36;4.28;;;3.17;;
51921;SDS011;37948;53.260;6.394;2023-02-28T12:18:39;3.92;;;3.17;;
51921;SDS011;37948;53.260;6.394;2023-02-28T12:23:51;5.32;;;3.70;;
51921;SDS011;37948;53.260;6.394;2023-02-28T12:26:43;4.72;;;3.92;;
51921;SDS011;37948;53.260;6.394;2023-02-28T12:29:12;4.38;;;3.65;;
51921;SDS011;37948;53.260;6.394;2023-02-28T12:31:49;4.88;;;3.53;;
51921;SDS011;37948;53.260;6.394;2023-02-28T12:34:21;5.47;;;4.50;;
51921;SDS011;37948;53.260;6.394;2023-02-28T12:36:51;5.00;;;3.85;;
51921;SDS011;37948;53.260;6.394;2023-02-28T12:39:20;6.60;;;3.75;;
51921;SDS011;37948;53.260;6.394;2023-02-28T12:41:53;7.70;;;3.75;;
51921;SDS011;37948;53.260;6.394;2023-02-28T12:44:33;6.05;;;4.18;;
51921;SDS011;37948;53.260;6.394;2023-02-28T12:47:03;5.35;;;3.83;;
51921;SDS011;37948;53.260;6.394;2023-02-28T12:49:36;5.07;;;4.28;;
51921;SDS011;37948;53.260;6.394;2023-02-28T12:52:11;4.43;;;3.80;;
51921;SDS011;37948;53.260;6.394;2023-02-28T12:54:48;4.85;;;4.25;;
51921;SDS011;37948;53.260;6.394;2023-02-28T12:57:34;5.65;;;4.43;;
51921;SDS011;37948;53.260;6.394;2023-02-28T13:13:19;5.18;;;4.43;;
51921;SDS011;37948;53.260;6.394;2023-02-28T13:16:01;5.75;;;4.07;;
51921;SDS011;37948;53.260;6.394;2023-02-28T13:20:58;4.75;;;3.30;;
51921;SDS011;37948;53.260;6.394;2023-02-28T13:23:36;4.65;;;4.10;;
51921;SDS011;37948;53.260;6.394;2023-02-28T13:29:04;8.43;;;4.82;;
51921;SDS011;37948;53.260;6.394;2023-02-28T13:47:39;5.97;;;5.35;;
51921;SDS011;37948;53.260;6.394;2023-02-28T13:50:15;8.15;;;4.85;;
51921;SDS011;37948;53.260;6.394;2023-02-28T13:52:45;5.05;;;4.35;;
51921;SDS011;37948;53.260;6.394;2023-02-28T14:03:41;8.20;;;4.53;;
51921;SDS011;37948;53.260;6.394;2023-02-28T14:11:44;6.03;;;4.43;;
51921;SDS011;37948;53.260;6.394;2023-02-28T14:17:05;5.97;;;5.00;;
51921;SDS011;37948;53.260;6.394;2023-02-28T14:19:34;8.75;;;4.70;;
51921;SDS011;37948;53.260;6.394;2023-02-28T14:27:35;6.60;;;5.00;;
51921;SDS011;37948;53.260;6.394;2023-02-28T14:38:55;5.68;;;4.47;;
51921;SDS011;37948;53.260;6.394;2023-02-28T14:41:33;6.10;;;4.90;;
51921;SDS011;37948;53.260;6.394;2023-02-28T14:44:02;5.35;;;4.65;;
51921;SDS011;37948;53.260;6.394;2023-02-28T14:46:38;5.85;;;4.88;;
51921;SDS011;37948;53.260;6.394;2023-02-28T14:49:06;7.63;;;6.05;;
51921;SDS011;37948;53.260;6.394;2023-02-28T14:51:38;10.63;;;5.95;;
51921;SDS011;37948;53.260;6.394;2023-02-28T14:54:03;8.60;;;6.22;;
51921;SDS011;37948;53.260;6.394;2023-02-28T14:56:33;9.02;;;5.90;;
51921;SDS011;37948;53.260;6.394;2023-02-28T14:59:01;9.30;;;6.38;;
51921;SDS011;37948;53.260;6.394;2023-02-28T15:01:28;5.68;;;5.00;;
51921;SDS011;37948;53.260;6.394;2023-02-28T15:04:01;6.93;;;5.20;;
51921;SDS011;37948;53.260;6.394;2023-02-28T15:06:29;9.25;;;5.85;;
51921;SDS011;37948;53.260;6.394;2023-02-28T15:09:09;6.63;;;5.68;;
51921;SDS011;37948;53.260;6.394;2023-02-28T15:11:45;6.55;;;5.63;;
51921;SDS011;37948;53.260;6.394;2023-02-28T15:14:14;8.57;;;5.40;;
51921;SDS011;37948;53.260;6.394;2023-02-28T15:16:44;6.65;;;5.18;;
51921;SDS011;37948;53.260;6.394;2023-02-28T15:19:21;7.47;;;5.35;;
51921;SDS011;37948;53.260;6.394;2023-02-28T15:21:51;7.30;;;5.65;;
51921;SDS011;37948;53.260;6.394;2023-02-28T15:24:51;10.63;;;4.97;;
51921;SDS011;37948;53.260;6.394;2023-02-28T15:27:20;7.38;;;5.82;;
51921;SDS011;37948;53.260;6.394;2023-02-28T15:29:49;8.27;;;6.53;;
51921;SDS011;37948;53.260;6.394;2023-02-28T15:32:23;8.80;;;6.38;;
51921;SDS011;37948;53.260;6.394;2023-02-28T15:34:51;8.65;;;6.53;;
51921;SDS011;37948;53.260;6.394;2023-02-28T15:40:11;7.38;;;6.45;;
51921;SDS011;37948;53.260;6.394;2023-02-28T15:42:40;10.15;;;7.53;;
51921;SDS011;37948;53.260;6.394;2023-02-28T15:45:32;10.88;;;7.20;;
51921;SDS011;37948;53.260;6.394;2023-02-28T15:48:02;9.15;;;6.45;;
51921;SDS011;37948;53.260;6.394;2023-02-28T15:50:28;8.35;;;6.07;;
51921;SDS011;37948;53.260;6.394;2023-02-28T15:52:54;10.02;;;6.22;;
51921;SDS011;37948;53.260;6.394;2023-02-28T15:55:21;7.03;;;5.97;;
51921;SDS011;37948;53.260;6.394;2023-02-28T15:57:50;8.85;;;6.40;;
51921;SDS011;37948;53.260;6.394;2023-02-28T16:00:19;8.15;;;6.20;;
51921;SDS011;37948;53.260;6.394;2023-02-28T16:02:49;8.73;;;5.70;;
51921;SDS011;37948;53.260;6.394;2023-02-28T16:05:28;7.97;;;6.20;;
51921;SDS011;37948;53.260;6.394;2023-02-28T16:07:57;11.70;;;6.40;;
51921;SDS011;37948;53.260;6.394;2023-02-28T16:10:25;11.93;;;5.97;;
51921;SDS011;37948;53.260;6.394;2023-02-28T16:12:56;7.65;;;6.20;;
51921;SDS011;37948;53.260;6.394;2023-02-28T16:15:26;10.10;;;6.43;;
51921;SDS011;37948;53.260;6.394;2023-02-28T16:17:54;7.03;;;6.00;;
51921;SDS011;37948;53.260;6.394;2023-02-28T16:20:25;6.40;;;5.80;;
51921;SDS011;37948;53.260;6.394;2023-02-28T16:22:52;8.60;;;6.57;;
51921;SDS011;37948;53.260;6.394;2023-02-28T16:25:20;10.93;;;6.15;;
51921;SDS011;37948;53.260;6.394;2023-02-28T16:30:26;23.85;;;6.78;;
51921;SDS011;37948;53.260;6.394;2023-02-28T16:32:56;22.02;;;6.88;;
51921;SDS011;37948;53.260;6.394;2023-02-28T16:35:22;8.70;;;6.13;;
51921;SDS011;37948;53.260;6.394;2023-02-28T16:37:48;9.77;;;6.95;;
51921;SDS011;37948;53.260;6.394;2023-02-28T16:40:17;15.10;;;6.68;;
51921;SDS011;37948;53.260;6.394;2023-02-28T16:42:46;13.90;;;7.18;;
51921;SDS011;37948;53.260;6.394;2023-02-28T16:45:23;10.73;;;7.85;;
51921;SDS011;37948;53.260;6.394;2023-02-28T16:47:51;8.38;;;6.85;;
51921;SDS011;37948;53.260;6.394;2023-02-28T16:50:18;8.90;;;7.25;;
51921;SDS011;37948;53.260;6.394;2023-02-28T16:52:46;10.52;;;8.07;;
51921;SDS011;37948;53.260;6.394;2023-02-28T16:55:14;10.00;;;8.13;;
51921;SDS011;37948;53.260;6.394;2023-02-28T16:57:40;9.30;;;7.80;;
51921;SDS011;37948;53.260;6.394;2023-02-28T17:00:08;9.93;;;8.00;;
51921;SDS011;37948;53.260;6.394;2023-02-28T17:02:37;10.02;;;8.57;;
51921;SDS011;37948;53.260;6.394;2023-02-28T17:05:03;8.57;;;7.40;;
51921;SDS011;37948;53.260;6.394;2023-02-28T17:07:31;10.95;;;7.72;;
51921;SDS011;37948;53.260;6.394;2023-02-28T17:09:57;11.48;;;7.13;;
51921;SDS011;37948;53.260;6.394;2023-02-28T17:12:24;10.93;;;7.15;;
51921;SDS011;37948;53.260;6.394;2023-02-28T17:14:49;13.93;;;7.35;;
51921;SDS011;37948;53.260;6.394;2023-02-28T17:17:17;10.07;;;8.10;;
51921;SDS011;37948;53.260;6.394;2023-02-28T17:19:44;10.98;;;7.93;;
51921;SDS011;37948;53.260;6.394;2023-02-28T17:22:10;12.57;;;9.90;;
51921;SDS011;37948;53.260;6.394;2023-02-28T17:24:36;14.88;;;9.43;;
51921;SDS011;37948;53.260;6.394;2023-02-28T17:27:02;19.15;;;11.85;;
51921;SDS011;37948;53.260;6.394;2023-02-28T17:29:28;14.63;;;9.52;;
51921;SDS011;37948;53.260;6.394;2023-02-28T17:31:53;9.18;;;7.05;;
51921;SDS011;37948;53.260;6.394;2023-02-28T17:34:20;8.82;;;7.57;;
51921;SDS011;37948;53.260;6.394;2023-02-28T17:36:47;9.80;;;7.13;;